sensor_id;sensor_type;location;lat;lon;timestamp;temperature;humidity
22742;DHT22;11538;48.884;8.696;2023-04-09T00:00:14;9.90;99.90
22742;DHT22;11538;48.884;8.696;2023-04-09T00:02:42;9.90;99.90
22742;DHT22;11538;48.884;8.696;2023-04-09T00:05:09;9.90;99.90
22742;DHT22;11538;48.884;8.696;2023-04-09T00:07:36;9.90;99.90
22742;DHT22;11538;48.884;8.696;2023-04-09T00:10:03;9.90;99.90
22742;DHT22;11538;48.884;8.696;2023-04-09T00:12:30;9.90;99.90
22742;DHT22;11538;48.884;8.696;2023-04-09T00:14:57;9.90;99.90
22742;DHT22;11538;48.884;8.696;2023-04-09T00:17:23;9.90;99.90
22742;DHT22;11538;48.884;8.696;2023-04-09T00:19:50;9.90;99.90
22742;DHT22;11538;48.884;8.696;2023-04-09T00:22:17;9.90;99.90
22742;DHT22;11538;48.884;8.696;2023-04-09T00:24:44;9.90;99.90
22742;DHT22;11538;48.884;8.696;2023-04-09T00:27:11;9.90;99.90
22742;DHT22;11538;48.884;8.696;2023-04-09T00:29:38;9.90;99.90
22742;DHT22;11538;48.884;8.696;2023-04-09T00:32:05;9.80;99.90
22742;DHT22;11538;48.884;8.696;2023-04-09T00:34:33;9.80;99.90
22742;DHT22;11538;48.884;8.696;2023-04-09T00:37:00;9.70;99.90
22742;DHT22;11538;48.884;8.696;2023-04-09T00:39:27;9.70;99.90
22742;DHT22;11538;48.884;8.696;2023-04-09T00:41:58;9.60;99.90
22742;DHT22;11538;48.884;8.696;2023-04-09T00:44:28;9.50;99.90
22742;DHT22;11538;48.884;8.696;2023-04-09T00:46:57;9.40;99.90
22742;DHT22;11538;48.884;8.696;2023-04-09T00:49:25;9.40;99.90
22742;DHT22;11538;48.884;8.696;2023-04-09T00:51:53;9.30;99.90
22742;DHT22;11538;48.884;8.696;2023-04-09T00:54:20;9.20;99.90
22742;DHT22;11538;48.884;8.696;2023-04-09T00:56:47;9.20;99.90
22742;DHT22;11538;48.884;8.696;2023-04-09T00:59:14;9.10;99.90
22742;DHT22;11538;48.884;8.696;2023-04-09T01:01:41;9.10;99.90
22742;DHT22;11538;48.884;8.696;2023-04-09T01:04:09;9.00;99.90
22742;DHT22;11538;48.884;8.696;2023-04-09T01:06:38;8.90;99.90
22742;DHT22;11538;48.884;8.696;2023-04-09T01:09:17;8.90;99.90
22742;DHT22;11538;48.884;8.696;2023-04-09T01:15:05;8.80;99.90
22742;DHT22;11538;48.884;8.696;2023-04-09T01:17:52;8.70;99.90
22742;DHT22;11538;48.884;8.696;2023-04-09T01:20:32;8.70;99.90
22742;DHT22;11538;48.884;8.696;2023-04-09T01:28:44;8.60;99.90
22742;DHT22;11538;48.884;8.696;2023-04-09T01:31:16;8.50;99.90
22742;DHT22;11538;48.884;8.696;2023-04-09T01:33:44;8.50;99.90
22742;DHT22;11538;48.884;8.696;2023-04-09T01:36:13;8.40;99.90
22742;DHT22;11538;48.884;8.696;2023-04-09T01:38:42;8.30;99.90
22742;DHT22;11538;48.884;8.696;2023-04-09T01:41:15;8.30;99.90
22742;DHT22;11538;48.884;8.696;2023-04-09T01:43:45;8.20;99.90
22742;DHT22;11538;48.884;8.696;2023-04-09T01:46:14;8.20;99.90
22742;DHT22;11538;48.884;8.696;2023-04-09T01:48:43;8.20;99.90
22742;DHT22;11538;48.884;8.696;2023-04-09T01:51:12;8.20;99.90
22742;DHT22;11538;48.884;8.696;2023-04-09T01:53:40;8.10;99.90
22742;DHT22;11538;48.884;8.696;2023-04-09T01:56:08;8.10;99.90
22742;DHT22;11538;48.884;8.696;2023-04-09T01:58:35;8.10;99.90
22742;DHT22;11538;48.884;8.696;2023-04-09T02:01:32;8.00;99.90
22742;DHT22;11538;48.884;8.696;2023-04-09T02:04:08;8.00;99.90
22742;DHT22;11538;48.884;8.696;2023-04-09T02:07:10;7.90;99.90
22742;DHT22;11538;48.884;8.696;2023-04-09T02:09:44;7.90;99.90
22742;DHT22;11538;48.884;8.696;2023-04-09T02:12:15;7.80;99.90
22742;DHT22;11538;48.884;8.696;2023-04-09T02:14:50;7.80;99.90
22742;DHT22;11538;48.884;8.696;2023-04-09T02:17:18;7.70;99.90
22742;DHT22;11538;48.884;8.696;2023-04-09T02:19:46;7.60;99.90
22742;DHT22;11538;48.884;8.696;2023-04-09T02:22:16;7.60;99.90
22742;DHT22;11538;48.884;8.696;2023-04-09T02:24:43;7.50;99.90
22742;DHT22;11538;48.884;8.696;2023-04-09T02:27:11;7.40;99.90
22742;DHT22;11538;48.884;8.696;2023-04-09T02:29:40;7.40;99.90
22742;DHT22;11538;48.884;8.696;2023-04-09T02:32:07;7.40;99.90
22742;DHT22;11538;48.884;8.696;2023-04-09T02:34:34;7.20;99.90
22742;DHT22;11538;48.884;8.696;2023-04-09T02:37:01;7.20;99.90
22742;DHT22;11538;48.884;8.696;2023-04-09T02:39:28;7.10;99.90
22742;DHT22;11538;48.884;8.696;2023-04-09T02:41:55;7.00;99.90
22742;DHT22;11538;48.884;8.696;2023-04-09T02:44:23;6.90;99.90
22742;DHT22;11538;48.884;8.696;2023-04-09T02:46:50;6.90;99.90
22742;DHT22;11538;48.884;8.696;2023-04-09T02:49:19;6.90;99.90
22742;DHT22;11538;48.884;8.696;2023-04-09T02:51:46;6.90;99.90
22742;DHT22;11538;48.884;8.696;2023-04-09T02:54:13;6.90;99.90
22742;DHT22;11538;48.884;8.696;2023-04-09T02:56:39;6.80;99.90
22742;DHT22;11538;48.884;8.696;2023-04-09T02:59:06;6.80;99.90
22742;DHT22;11538;48.884;8.696;2023-04-09T03:01:33;6.80;99.90
22742;DHT22;11538;48.884;8.696;2023-04-09T03:04:00;6.70;99.90
22742;DHT22;11538;48.884;8.696;2023-04-09T03:06:28;6.70;99.90
22742;DHT22;11538;48.884;8.696;2023-04-09T03:08:55;6.70;99.90
22742;DHT22;11538;48.884;8.696;2023-04-09T03:11:22;6.70;99.90
22742;DHT22;11538;48.884;8.696;2023-04-09T03:13:48;6.60;99.90
22742;DHT22;11538;48.884;8.696;2023-04-09T03:16:15;6.70;99.90
22742;DHT22;11538;48.884;8.696;2023-04-09T03:18:42;6.70;99.90
22742;DHT22;11538;48.884;8.696;2023-04-09T03:21:09;6.60;99.90
22742;DHT22;11538;48.884;8.696;2023-04-09T03:23:39;6.60;99.90
22742;DHT22;11538;48.884;8.696;2023-04-09T03:26:07;6.60;99.90
22742;DHT22;11538;48.884;8.696;2023-04-09T03:28:33;6.60;99.90
22742;DHT22;11538;48.884;8.696;2023-04-09T03:31:01;6.60;99.90
22742;DHT22;11538;48.884;8.696;2023-04-09T03:33:28;6.60;99.90
22742;DHT22;11538;48.884;8.696;2023-04-09T03:35:54;6.60;99.90
22742;DHT22;11538;48.884;8.696;2023-04-09T03:38:21;6.60;99.90
22742;DHT22;11538;48.884;8.696;2023-04-09T03:40:49;6.60;99.90
22742;DHT22;11538;48.884;8.696;2023-04-09T03:43:16;6.60;99.90
22742;DHT22;11538;48.884;8.696;2023-04-09T03:45:43;6.50;99.90
22742;DHT22;11538;48.884;8.696;2023-04-09T03:48:09;6.50;99.90
22742;DHT22;11538;48.884;8.696;2023-04-09T03:50:38;6.40;99.90
22742;DHT22;11538;48.884;8.696;2023-04-09T03:53:06;6.40;99.90
22742;DHT22;11538;48.884;8.696;2023-04-09T03:55:33;6.20;99.90
22742;DHT22;11538;48.884;8.696;2023-04-09T03:58:00;6.10;99.90
22742;DHT22;11538;48.884;8.696;2023-04-09T04:00:27;6.10;99.90
22742;DHT22;11538;48.884;8.696;2023-04-09T04:02:54;6.10;99.90
22742;DHT22;11538;48.884;8.696;2023-04-09T04:05:22;6.00;99.90
22742;DHT22;11538;48.884;8.696;2023-04-09T04:07:50;5.90;99.90
22742;DHT22;11538;48.884;8.696;2023-04-09T04:10:18;5.90;99.90
22742;DHT22;11538;48.884;8.696;2023-04-09T04:12:45;5.90;99.90
22742;DHT22;11538;48.884;8.696;2023-04-09T04:15:12;5.90;99.90
22742;DHT22;11538;48.884;8.696;2023-04-09T04:17:39;5.90;99.90
22742;DHT22;11538;48.884;8.696;2023-04-09T04:20:06;5.80;99.90
22742;DHT22;11538;48.884;8.696;2023-04-09T04:22:33;5.80;99.90
22742;DHT22;11538;48.884;8.696;2023-04-09T04:25:02;5.80;99.90
22742;DHT22;11538;48.884;8.696;2023-04-09T04:27:29;5.80;99.90
22742;DHT22;11538;48.884;8.696;2023-04-09T04:29:57;5.80;99.90
22742;DHT22;11538;48.884;8.696;2023-04-09T04:32:25;5.70;99.90
22742;DHT22;11538;48.884;8.696;2023-04-09T04:34:53;5.70;99.90
22742;DHT22;11538;48.884;8.696;2023-04-09T04:37:20;5.70;99.90
22742;DHT22;11538;48.884;8.696;2023-04-09T04:39:47;5.70;99.90
22742;DHT22;11538;48.884;8.696;2023-04-09T04:42:14;5.70;99.90
22742;DHT22;11538;48.884;8.696;2023-04-09T04:44:43;5.70;99.90
22742;DHT22;11538;48.884;8.696;2023-04-09T04:47:10;5.80;99.90
22742;DHT22;11538;48.884;8.696;2023-04-09T04:49:37;5.80;99.90
22742;DHT22;11538;48.884;8.696;2023-04-09T04:52:05;5.70;99.90
22742;DHT22;11538;48.884;8.696;2023-04-09T04:54:32;5.80;99.90
22742;DHT22;11538;48.884;8.696;2023-04-09T04:57:00;5.80;99.90
22742;DHT22;11538;48.884;8.696;2023-04-09T04:59:27;5.70;99.90
22742;DHT22;11538;48.884;8.696;2023-04-09T05:01:54;5.70;99.90
22742;DHT22;11538;48.884;8.696;2023-04-09T05:04:21;5.70;99.90
22742;DHT22;11538;48.884;8.696;2023-04-09T05:06:48;5.60;99.90
22742;DHT22;11538;48.884;8.696;2023-04-09T05:09:15;5.60;99.90
22742;DHT22;11538;48.884;8.696;2023-04-09T05:11:42;5.50;99.90
22742;DHT22;11538;48.884;8.696;2023-04-09T05:14:09;5.50;99.90
22742;DHT22;11538;48.884;8.696;2023-04-09T05:16:36;5.50;99.90
22742;DHT22;11538;48.884;8.696;2023-04-09T05:19:03;5.40;99.90
22742;DHT22;11538;48.884;8.696;2023-04-09T05:21:30;5.40;99.90
22742;DHT22;11538;48.884;8.696;2023-04-09T05:23:57;5.30;99.90
22742;DHT22;11538;48.884;8.696;2023-04-09T05:26:24;5.30;99.90
22742;DHT22;11538;48.884;8.696;2023-04-09T05:28:52;5.30;99.90
22742;DHT22;11538;48.884;8.696;2023-04-09T05:31:19;5.40;99.90
22742;DHT22;11538;48.884;8.696;2023-04-09T05:33:46;5.40;99.90
22742;DHT22;11538;48.884;8.696;2023-04-09T05:36:17;5.50;99.90
22742;DHT22;11538;48.884;8.696;2023-04-09T05:38:45;5.50;99.90
22742;DHT22;11538;48.884;8.696;2023-04-09T05:41:14;5.60;99.90
22742;DHT22;11538;48.884;8.696;2023-04-09T05:43:40;5.60;99.90
22742;DHT22;11538;48.884;8.696;2023-04-09T05:46:08;5.60;99.90
22742;DHT22;11538;48.884;8.696;2023-04-09T05:48:35;5.60;99.90
22742;DHT22;11538;48.884;8.696;2023-04-09T05:51:03;5.60;99.90
22742;DHT22;11538;48.884;8.696;2023-04-09T05:53:30;5.60;99.90
22742;DHT22;11538;48.884;8.696;2023-04-09T05:55:57;5.60;99.90
22742;DHT22;11538;48.884;8.696;2023-04-09T05:58:24;5.60;99.90
22742;DHT22;11538;48.884;8.696;2023-04-09T06:00:51;5.60;99.90
22742;DHT22;11538;48.884;8.696;2023-04-09T06:03:18;5.60;99.90
22742;DHT22;11538;48.884;8.696;2023-04-09T06:05:46;5.60;99.90
22742;DHT22;11538;48.884;8.696;2023-04-09T06:08:16;5.60;99.90
22742;DHT22;11538;48.884;8.696;2023-04-09T06:10:43;5.70;99.90
22742;DHT22;11538;48.884;8.696;2023-04-09T06:13:09;5.80;99.90
22742;DHT22;11538;48.884;8.696;2023-04-09T06:15:37;5.80;99.90
22742;DHT22;11538;48.884;8.696;2023-04-09T06:18:05;5.90;99.90
22742;DHT22;11538;48.884;8.696;2023-04-09T06:20:32;6.00;99.90
22742;DHT22;11538;48.884;8.696;2023-04-09T06:22:59;6.00;99.90
22742;DHT22;11538;48.884;8.696;2023-04-09T06:25:26;6.10;99.90
22742;DHT22;11538;48.884;8.696;2023-04-09T06:27:53;6.10;99.90
22742;DHT22;11538;48.884;8.696;2023-04-09T06:30:20;6.20;99.90
22742;DHT22;11538;48.884;8.696;2023-04-09T06:32:47;6.20;99.90
22742;DHT22;11538;48.884;8.696;2023-04-09T06:35:21;6.40;99.90
22742;DHT22;11538;48.884;8.696;2023-04-09T06:37:48;6.40;99.90
22742;DHT22;11538;48.884;8.696;2023-04-09T06:40:15;6.40;99.90
22742;DHT22;11538;48.884;8.696;2023-04-09T06:42:48;6.40;99.90
22742;DHT22;11538;48.884;8.696;2023-04-09T06:45:15;6.50;99.90
22742;DHT22;11538;48.884;8.696;2023-04-09T06:47:41;6.60;99.90
22742;DHT22;11538;48.884;8.696;2023-04-09T06:50:09;6.60;99.90
22742;DHT22;11538;48.884;8.696;2023-04-09T06:52:36;6.70;99.90
22742;DHT22;11538;48.884;8.696;2023-04-09T06:55:07;6.80;99.90
22742;DHT22;11538;48.884;8.696;2023-04-09T06:57:34;6.90;99.90
22742;DHT22;11538;48.884;8.696;2023-04-09T07:00:01;7.00;99.90
22742;DHT22;11538;48.884;8.696;2023-04-09T07:02:29;7.10;99.90
22742;DHT22;11538;48.884;8.696;2023-04-09T07:04:56;7.10;99.90
22742;DHT22;11538;48.884;8.696;2023-04-09T07:07:23;7.20;99.90
22742;DHT22;11538;48.884;8.696;2023-04-09T07:09:52;7.30;99.90
22742;DHT22;11538;48.884;8.696;2023-04-09T07:12:32;7.40;99.90
22742;DHT22;11538;48.884;8.696;2023-04-09T07:15:06;7.60;99.90
22742;DHT22;11538;48.884;8.696;2023-04-09T07:17:34;7.70;99.90
22742;DHT22;11538;48.884;8.696;2023-04-09T07:20:02;7.80;99.90
22742;DHT22;11538;48.884;8.696;2023-04-09T07:22:30;7.80;99.90
22742;DHT22;11538;48.884;8.696;2023-04-09T07:24:58;8.00;99.90
22742;DHT22;11538;48.884;8.696;2023-04-09T07:27:26;8.10;99.90
22742;DHT22;11538;48.884;8.696;2023-04-09T07:29:57;8.20;99.90
22742;DHT22;11538;48.884;8.696;2023-04-09T07:32:26;8.30;99.90
22742;DHT22;11538;48.884;8.696;2023-04-09T07:34:54;8.40;99.90
22742;DHT22;11538;48.884;8.696;2023-04-09T07:37:21;8.60;99.90
22742;DHT22;11538;48.884;8.696;2023-04-09T07:39:49;8.70;99.90
22742;DHT22;11538;48.884;8.696;2023-04-09T07:42:16;8.80;99.90
22742;DHT22;11538;48.884;8.696;2023-04-09T07:44:43;9.00;99.90
22742;DHT22;11538;48.884;8.696;2023-04-09T07:47:10;9.10;99.90
22742;DHT22;11538;48.884;8.696;2023-04-09T07:49:39;9.30;99.90
22742;DHT22;11538;48.884;8.696;2023-04-09T07:52:06;9.50;99.90
22742;DHT22;11538;48.884;8.696;2023-04-09T07:54:34;9.70;99.90
22742;DHT22;11538;48.884;8.696;2023-04-09T07:57:02;9.90;99.90
22742;DHT22;11538;48.884;8.696;2023-04-09T07:59:29;10.20;99.90
22742;DHT22;11538;48.884;8.696;2023-04-09T08:01:58;10.40;99.90
22742;DHT22;11538;48.884;8.696;2023-04-09T08:04:26;10.60;99.90
22742;DHT22;11538;48.884;8.696;2023-04-09T08:06:53;10.80;99.90
22742;DHT22;11538;48.884;8.696;2023-04-09T08:09:21;11.10;99.90
22742;DHT22;11538;48.884;8.696;2023-04-09T08:11:48;11.30;99.90
22742;DHT22;11538;48.884;8.696;2023-04-09T08:14:16;11.50;99.90
22742;DHT22;11538;48.884;8.696;2023-04-09T08:16:45;11.80;99.90
22742;DHT22;11538;48.884;8.696;2023-04-09T08:19:15;12.00;99.90
22742;DHT22;11538;48.884;8.696;2023-04-09T08:21:43;12.20;99.90
22742;DHT22;11538;48.884;8.696;2023-04-09T08:24:10;12.40;99.90
22742;DHT22;11538;48.884;8.696;2023-04-09T08:26:38;12.60;99.90
22742;DHT22;11538;48.884;8.696;2023-04-09T08:29:07;12.90;99.90
22742;DHT22;11538;48.884;8.696;2023-04-09T08:31:36;13.10;99.90
22742;DHT22;11538;48.884;8.696;2023-04-09T08:34:04;13.30;99.90
22742;DHT22;11538;48.884;8.696;2023-04-09T08:36:31;13.50;99.90
22742;DHT22;11538;48.884;8.696;2023-04-09T08:39:01;13.70;99.90
22742;DHT22;11538;48.884;8.696;2023-04-09T08:41:29;14.00;99.90
22742;DHT22;11538;48.884;8.696;2023-04-09T08:43:57;14.20;99.90
22742;DHT22;11538;48.884;8.696;2023-04-09T08:46:26;14.20;99.90
22742;DHT22;11538;48.884;8.696;2023-04-09T08:48:54;14.40;99.90
22742;DHT22;11538;48.884;8.696;2023-04-09T08:51:23;14.60;99.90
22742;DHT22;11538;48.884;8.696;2023-04-09T08:56:30;14.80;99.90
22742;DHT22;11538;48.884;8.696;2023-04-09T08:58:57;14.70;99.90
22742;DHT22;11538;48.884;8.696;2023-04-09T09:01:29;14.50;99.90
22742;DHT22;11538;48.884;8.696;2023-04-09T09:04:03;14.40;99.90
22742;DHT22;11538;48.884;8.696;2023-04-09T09:06:38;14.10;99.90
22742;DHT22;11538;48.884;8.696;2023-04-09T09:09:14;14.00;99.90
22742;DHT22;11538;48.884;8.696;2023-04-09T09:11:44;13.80;99.90
22742;DHT22;11538;48.884;8.696;2023-04-09T09:14:18;13.60;99.90
22742;DHT22;11538;48.884;8.696;2023-04-09T09:24:23;13.40;99.90
22742;DHT22;11538;48.884;8.696;2023-04-09T09:26:50;13.40;99.90
22742;DHT22;11538;48.884;8.696;2023-04-09T09:29:18;13.40;99.90
22742;DHT22;11538;48.884;8.696;2023-04-09T09:31:46;13.40;99.90
22742;DHT22;11538;48.884;8.696;2023-04-09T09:34:19;13.50;99.90
22742;DHT22;11538;48.884;8.696;2023-04-09T09:36:47;13.50;99.90
22742;DHT22;11538;48.884;8.696;2023-04-09T09:39:15;13.60;99.90
22742;DHT22;11538;48.884;8.696;2023-04-09T09:41:44;13.80;99.90
22742;DHT22;11538;48.884;8.696;2023-04-09T09:44:30;14.00;99.90
22742;DHT22;11538;48.884;8.696;2023-04-09T09:46:59;14.30;99.90
22742;DHT22;11538;48.884;8.696;2023-04-09T09:49:29;14.50;99.90
22742;DHT22;11538;48.884;8.696;2023-04-09T09:51:59;14.70;99.90
22742;DHT22;11538;48.884;8.696;2023-04-09T09:54:34;14.80;99.90
22742;DHT22;11538;48.884;8.696;2023-04-09T09:57:08;14.80;99.90
22742;DHT22;11538;48.884;8.696;2023-04-09T09:59:37;14.80;99.90
22742;DHT22;11538;48.884;8.696;2023-04-09T10:02:19;14.80;99.90
22742;DHT22;11538;48.884;8.696;2023-04-09T10:04:49;14.80;99.90
22742;DHT22;11538;48.884;8.696;2023-04-09T10:07:19;14.80;99.90
22742;DHT22;11538;48.884;8.696;2023-04-09T10:09:55;14.70;99.90
22742;DHT22;11538;48.884;8.696;2023-04-09T10:12:24;14.70;99.90
22742;DHT22;11538;48.884;8.696;2023-04-09T10:14:54;14.60;99.90
22742;DHT22;11538;48.884;8.696;2023-04-09T10:17:22;14.60;99.90
22742;DHT22;11538;48.884;8.696;2023-04-09T10:19:59;14.50;99.90
22742;DHT22;11538;48.884;8.696;2023-04-09T10:22:36;14.50;99.90
22742;DHT22;11538;48.884;8.696;2023-04-09T10:25:05;14.40;99.90
22742;DHT22;11538;48.884;8.696;2023-04-09T10:27:32;14.40;99.90
22742;DHT22;11538;48.884;8.696;2023-04-09T10:30:00;14.40;99.90
22742;DHT22;11538;48.884;8.696;2023-04-09T10:32:34;14.50;99.90
22742;DHT22;11538;48.884;8.696;2023-04-09T10:35:02;14.60;99.90
22742;DHT22;11538;48.884;8.696;2023-04-09T10:37:30;14.60;99.90
22742;DHT22;11538;48.884;8.696;2023-04-09T10:39:57;14.60;99.90
22742;DHT22;11538;48.884;8.696;2023-04-09T10:42:38;14.60;99.90
22742;DHT22;11538;48.884;8.696;2023-04-09T10:45:11;14.60;99.90
22742;DHT22;11538;48.884;8.696;2023-04-09T10:47:41;14.50;99.90
22742;DHT22;11538;48.884;8.696;2023-04-09T10:50:33;14.50;99.90
22742;DHT22;11538;48.884;8.696;2023-04-09T10:53:02;14.40;99.90
22742;DHT22;11538;48.884;8.696;2023-04-09T10:55:38;14.20;99.90
22742;DHT22;11538;48.884;8.696;2023-04-09T10:58:08;14.20;99.90
22742;DHT22;11538;48.884;8.696;2023-04-09T11:00:41;14.10;99.90
22742;DHT22;11538;48.884;8.696;2023-04-09T11:03:24;14.20;99.90
22742;DHT22;11538;48.884;8.696;2023-04-09T11:06:02;14.20;99.90
22742;DHT22;11538;48.884;8.696;2023-04-09T11:08:33;14.40;99.90
22742;DHT22;11538;48.884;8.696;2023-04-09T11:11:01;14.50;99.90
22742;DHT22;11538;48.884;8.696;2023-04-09T11:13:30;14.60;99.90
22742;DHT22;11538;48.884;8.696;2023-04-09T11:15:58;14.60;99.90
22742;DHT22;11538;48.884;8.696;2023-04-09T11:18:28;14.60;99.90
22742;DHT22;11538;48.884;8.696;2023-04-09T11:20:58;14.60;99.90
22742;DHT22;11538;48.884;8.696;2023-04-09T11:23:26;14.60;99.90
22742;DHT22;11538;48.884;8.696;2023-04-09T11:25:54;14.50;99.90
22742;DHT22;11538;48.884;8.696;2023-04-09T11:28:30;14.50;99.90
22742;DHT22;11538;48.884;8.696;2023-04-09T11:30:58;14.60;99.90
22742;DHT22;11538;48.884;8.696;2023-04-09T11:33:32;14.60;99.90
22742;DHT22;11538;48.884;8.696;2023-04-09T11:36:04;14.70;99.90
22742;DHT22;11538;48.884;8.696;2023-04-09T11:38:32;14.70;99.90
22742;DHT22;11538;48.884;8.696;2023-04-09T11:41:00;14.70;99.90
22742;DHT22;11538;48.884;8.696;2023-04-09T11:43:27;14.70;99.90
22742;DHT22;11538;48.884;8.696;2023-04-09T11:45:54;14.80;99.90
22742;DHT22;11538;48.884;8.696;2023-04-09T11:48:23;14.80;99.90
22742;DHT22;11538;48.884;8.696;2023-04-09T11:50:51;14.90;99.90
22742;DHT22;11538;48.884;8.696;2023-04-09T11:53:19;15.00;99.90
22742;DHT22;11538;48.884;8.696;2023-04-09T11:55:52;15.00;99.90
22742;DHT22;11538;48.884;8.696;2023-04-09T11:58:25;15.10;99.90
22742;DHT22;11538;48.884;8.696;2023-04-09T12:01:02;15.20;99.90
22742;DHT22;11538;48.884;8.696;2023-04-09T12:03:30;15.30;99.90
22742;DHT22;11538;48.884;8.696;2023-04-09T12:06:01;15.40;99.90
22742;DHT22;11538;48.884;8.696;2023-04-09T12:08:30;15.50;99.90
22742;DHT22;11538;48.884;8.696;2023-04-09T12:11:10;15.80;99.90
22742;DHT22;11538;48.884;8.696;2023-04-09T12:13:38;16.60;99.90
22742;DHT22;11538;48.884;8.696;2023-04-09T12:16:11;17.40;99.90
22742;DHT22;11538;48.884;8.696;2023-04-09T12:18:39;18.00;99.90
22742;DHT22;11538;48.884;8.696;2023-04-09T12:21:09;18.60;99.90
22742;DHT22;11538;48.884;8.696;2023-04-09T12:23:36;19.20;99.90
22742;DHT22;11538;48.884;8.696;2023-04-09T12:26:03;19.60;99.90
22742;DHT22;11538;48.884;8.696;2023-04-09T12:28:30;19.50;99.90
22742;DHT22;11538;48.884;8.696;2023-04-09T12:30:57;19.10;99.90
22742;DHT22;11538;48.884;8.696;2023-04-09T12:33:25;18.80;99.90
22742;DHT22;11538;48.884;8.696;2023-04-09T12:35:52;18.40;99.90
22742;DHT22;11538;48.884;8.696;2023-04-09T12:38:19;18.10;99.90
22742;DHT22;11538;48.884;8.696;2023-04-09T12:40:46;17.90;99.90
22742;DHT22;11538;48.884;8.696;2023-04-09T12:43:13;17.60;99.90
22742;DHT22;11538;48.884;8.696;2023-04-09T12:45:41;17.40;99.90
22742;DHT22;11538;48.884;8.696;2023-04-09T12:48:08;17.20;99.90
22742;DHT22;11538;48.884;8.696;2023-04-09T12:50:35;17.00;99.90
22742;DHT22;11538;48.884;8.696;2023-04-09T12:53:02;16.90;99.90
22742;DHT22;11538;48.884;8.696;2023-04-09T12:55:28;16.90;99.90
22742;DHT22;11538;48.884;8.696;2023-04-09T12:57:55;17.30;99.90
22742;DHT22;11538;48.884;8.696;2023-04-09T13:00:23;17.90;99.90
22742;DHT22;11538;48.884;8.696;2023-04-09T13:02:50;18.70;99.90
22742;DHT22;11538;48.884;8.696;2023-04-09T13:05:18;19.40;99.90
22742;DHT22;11538;48.884;8.696;2023-04-09T13:07:45;20.10;99.90
22742;DHT22;11538;48.884;8.696;2023-04-09T13:10:12;20.80;99.90
22742;DHT22;11538;48.884;8.696;2023-04-09T13:12:39;21.40;99.90
22742;DHT22;11538;48.884;8.696;2023-04-09T13:15:06;22.00;99.90
22742;DHT22;11538;48.884;8.696;2023-04-09T13:17:33;22.50;99.90
22742;DHT22;11538;48.884;8.696;2023-04-09T13:20:00;22.70;99.90
22742;DHT22;11538;48.884;8.696;2023-04-09T13:22:27;22.90;99.90
22742;DHT22;11538;48.884;8.696;2023-04-09T13:24:54;23.10;99.90
22742;DHT22;11538;48.884;8.696;2023-04-09T13:27:21;23.20;99.90
22742;DHT22;11538;48.884;8.696;2023-04-09T13:29:50;23.20;99.90
22742;DHT22;11538;48.884;8.696;2023-04-09T13:32:17;23.40;99.90
22742;DHT22;11538;48.884;8.696;2023-04-09T13:34:46;23.50;99.90
22742;DHT22;11538;48.884;8.696;2023-04-09T13:37:13;23.50;99.90
22742;DHT22;11538;48.884;8.696;2023-04-09T13:39:42;23.10;99.90
22742;DHT22;11538;48.884;8.696;2023-04-09T13:42:10;22.60;99.90
22742;DHT22;11538;48.884;8.696;2023-04-09T13:44:40;22.20;99.90
22742;DHT22;11538;48.884;8.696;2023-04-09T13:47:11;22.30;99.90
22742;DHT22;11538;48.884;8.696;2023-04-09T13:49:39;22.50;99.90
22742;DHT22;11538;48.884;8.696;2023-04-09T13:52:07;22.70;99.90
22742;DHT22;11538;48.884;8.696;2023-04-09T13:54:34;23.00;99.90
22742;DHT22;11538;48.884;8.696;2023-04-09T13:57:02;23.10;99.90
22742;DHT22;11538;48.884;8.696;2023-04-09T13:59:29;23.20;99.90
22742;DHT22;11538;48.884;8.696;2023-04-09T14:01:56;23.40;99.90
22742;DHT22;11538;48.884;8.696;2023-04-09T14:04:24;23.40;99.90
22742;DHT22;11538;48.884;8.696;2023-04-09T14:06:51;23.60;99.90
22742;DHT22;11538;48.884;8.696;2023-04-09T14:09:21;23.60;99.90
22742;DHT22;11538;48.884;8.696;2023-04-09T14:11:48;23.50;99.90
22742;DHT22;11538;48.884;8.696;2023-04-09T14:14:16;23.30;99.90
22742;DHT22;11538;48.884;8.696;2023-04-09T14:16:44;23.10;99.90
22742;DHT22;11538;48.884;8.696;2023-04-09T14:19:12;23.00;99.90
22742;DHT22;11538;48.884;8.696;2023-04-09T14:21:39;23.10;99.90
22742;DHT22;11538;48.884;8.696;2023-04-09T14:24:06;23.10;99.90
22742;DHT22;11538;48.884;8.696;2023-04-09T14:26:33;23.10;99.90
22742;DHT22;11538;48.884;8.696;2023-04-09T14:29:00;23.10;99.90
22742;DHT22;11538;48.884;8.696;2023-04-09T14:31:27;23.20;99.90
22742;DHT22;11538;48.884;8.696;2023-04-09T14:33:55;23.40;99.90
22742;DHT22;11538;48.884;8.696;2023-04-09T14:36:22;23.60;99.90
22742;DHT22;11538;48.884;8.696;2023-04-09T14:38:49;23.70;99.90
22742;DHT22;11538;48.884;8.696;2023-04-09T14:41:16;23.70;99.90
22742;DHT22;11538;48.884;8.696;2023-04-09T14:43:43;23.70;99.90
22742;DHT22;11538;48.884;8.696;2023-04-09T14:46:09;23.70;99.90
22742;DHT22;11538;48.884;8.696;2023-04-09T14:48:39;23.70;99.90
22742;DHT22;11538;48.884;8.696;2023-04-09T14:51:09;23.60;99.90
22742;DHT22;11538;48.884;8.696;2023-04-09T14:53:36;23.50;99.90
22742;DHT22;11538;48.884;8.696;2023-04-09T14:56:04;23.40;99.90
22742;DHT22;11538;48.884;8.696;2023-04-09T14:58:31;23.30;99.90
22742;DHT22;11538;48.884;8.696;2023-04-09T15:00:58;23.10;99.90
22742;DHT22;11538;48.884;8.696;2023-04-09T15:03:24;23.00;99.90
22742;DHT22;11538;48.884;8.696;2023-04-09T15:05:52;22.80;99.90
22742;DHT22;11538;48.884;8.696;2023-04-09T15:08:19;22.50;99.90
22742;DHT22;11538;48.884;8.696;2023-04-09T15:10:46;22.30;99.90
22742;DHT22;11538;48.884;8.696;2023-04-09T15:13:14;21.90;99.90
22742;DHT22;11538;48.884;8.696;2023-04-09T15:15:41;21.30;99.90
22742;DHT22;11538;48.884;8.696;2023-04-09T15:18:11;20.80;99.90
22742;DHT22;11538;48.884;8.696;2023-04-09T15:20:39;20.20;99.90
22742;DHT22;11538;48.884;8.696;2023-04-09T15:23:06;19.70;99.90
22742;DHT22;11538;48.884;8.696;2023-04-09T15:25:33;19.30;99.90
22742;DHT22;11538;48.884;8.696;2023-04-09T15:28:01;19.00;99.90
22742;DHT22;11538;48.884;8.696;2023-04-09T15:30:29;18.80;99.90
22742;DHT22;11538;48.884;8.696;2023-04-09T15:32:56;18.50;99.90
22742;DHT22;11538;48.884;8.696;2023-04-09T15:35:23;18.30;99.90
22742;DHT22;11538;48.884;8.696;2023-04-09T15:37:56;18.00;99.90
22742;DHT22;11538;48.884;8.696;2023-04-09T15:40:23;17.80;99.90
22742;DHT22;11538;48.884;8.696;2023-04-09T15:42:50;17.50;99.90
22742;DHT22;11538;48.884;8.696;2023-04-09T15:45:17;17.30;99.90
22742;DHT22;11538;48.884;8.696;2023-04-09T15:47:45;17.20;99.90
22742;DHT22;11538;48.884;8.696;2023-04-09T15:50:12;17.00;99.90
22742;DHT22;11538;48.884;8.696;2023-04-09T15:52:40;16.90;99.90
22742;DHT22;11538;48.884;8.696;2023-04-09T15:55:07;16.80;99.90
22742;DHT22;11538;48.884;8.696;2023-04-09T15:57:34;16.60;99.90
22742;DHT22;11538;48.884;8.696;2023-04-09T16:00:02;16.50;99.90
22742;DHT22;11538;48.884;8.696;2023-04-09T16:02:32;16.40;99.90
22742;DHT22;11538;48.884;8.696;2023-04-09T16:04:59;16.40;99.90